Danville, IN

4:06 PM EST on February 18, 2018 (GMT -0500)
Vermilion County

Weather History for KDNV - October, 2013

Change the Weather History Date:

Wednesday, October 9, 2013

  Actual Average (KLAF) Record (KLAF)
Temperature  
Mean Temperature 58 °F -  
Max Temperature 75 °F 67 °F 87 °F (2010)
Min Temperature 40 °F 45 °F 27 °F (2000)
Degree Days  
Heating Degree Days 8    
Growing Degree Days 8 (Base 50)    
Moisture  
Dew Point 41 °F    
Average Humidity 61    
Maximum Humidity 85    
Minimum Humidity 32    
Precipitation  
Precipitation 0.00 in - - ()
Sea Level Pressure  
Sea Level Pressure 30.16 in    
Wind  
Wind Speed 4 mph (East)    
Max Wind Speed 8 mph    
Max Gust Speed -    
Visibility 9 miles    
Events      
Averages and records for this station are not official NWS values.
T = Trace of Precipitation, MM = Missing Value Source: NWS Daily Summary

Daily Weather History Graph

Daily Weather History Graph

Search for Another Location

Airport or City:

Trip Planner

Search our weather history database for the weather conditions in past years. The results will help you decide how hot, cold, wet, or windy it might be!

Date:

Astronomy

Oct. 09, 2013 Rise Set
Actual Time 6:55 AM CDT 6:19 PM CDT
Civil Twilight 6:27 AM CDT 6:46 PM CDT
Nautical Twilight 5:56 AM CDT 7:17 PM CDT
Astronomical Twilight 5:24 AM CDT 7:49 PM CDT
Moon 11:50 AM CDT (10/9) 9:53 PM CDT (10/9)
Length of Visible Light 12h 18m
Length of Day
11h 24m
Waxing Crescent, 25% of the Moon is Illuminated
Oct 9
Waxing Crescent
Oct 11
First Quarter
Oct 18
Full
Oct 26
Last Quarter
Nov 3
New

Hourly Weather History & Observations

Time (CDT) Temp. Windchill Dew Point Humidity Pressure Visibility Wind Dir Wind Speed Gust Speed Precip Events Conditions
12:15 AM 48.9 °F - 40.1 °F 72% 30.17 in 10.0 mi SE 3.5 mph - N/A   Clear
12:35 AM 48.2 °F - 40.1 °F 74% 30.17 in 10.0 mi SE 4.6 mph - N/A   Clear
12:55 AM 47.5 °F - 39.4 °F 73% 30.17 in 7.0 mi ESE 4.6 mph - N/A   Clear
1:15 AM 47.3 °F - 39.2 °F 73% 30.17 in 10.0 mi ESE 4.6 mph - N/A   Clear
1:35 AM 45.9 °F - 37.9 °F 74% 30.18 in 7.0 mi Calm Calm - N/A   Clear
1:55 AM 45.7 °F - 38.3 °F 75% 30.17 in 10.0 mi Calm Calm - N/A   Clear
2:15 AM 44.4 °F 42.9 °F 36.5 °F 74% 30.17 in 10.0 mi East 3.5 mph - N/A   Clear
2:35 AM 43.2 °F 41.5 °F 35.8 °F 75% 30.17 in 10.0 mi ENE 3.5 mph - N/A   Clear
2:55 AM 41.9 °F 39.0 °F 34.7 °F 76% 30.16 in 10.0 mi ENE 4.6 mph - N/A   Clear
3:15 AM 42.3 °F 39.4 °F 36.0 °F 78% 30.16 in 10.0 mi East 4.6 mph - N/A   Clear
3:35 AM 42.3 °F 38.6 °F 36.1 °F 79% 30.16 in 10.0 mi East 5.8 mph - N/A   Clear
3:55 AM 41.9 °F 38.2 °F 35.8 °F 79% 30.16 in 10.0 mi East 5.8 mph - N/A   Clear
4:15 AM 42.8 °F 40.1 °F 37.0 °F 80% 30.17 in 10.0 mi East 4.6 mph - N/A   Clear
4:35 AM 43.3 °F 41.7 °F 37.6 °F 80% 30.17 in 10.0 mi ENE 3.5 mph - N/A   Clear
4:55 AM 42.6 °F 40.9 °F 36.7 °F 79% 30.18 in 10.0 mi ENE 3.5 mph - N/A   Clear
5:15 AM 41.9 °F 40.0 °F 36.0 °F 79% 30.18 in 10.0 mi East 3.5 mph - N/A   Clear
5:35 AM 40.5 °F - 35.4 °F 82% 30.19 in 10.0 mi Calm Calm - N/A   Clear
5:55 AM 41.2 °F 39.2 °F 35.8 °F 81% 30.19 in 10.0 mi ENE 3.5 mph - N/A   Clear
6:15 AM 41.0 °F - 35.6 °F 81% 30.20 in 10.0 mi Calm Calm - N/A   Clear
6:35 AM 41.0 °F 39.0 °F 35.8 °F 82% 30.20 in 10.0 mi NE 3.5 mph - N/A   Clear
6:55 AM 40.3 °F - 35.6 °F 83% 30.20 in 10.0 mi Calm Calm - N/A   Clear
7:15 AM 41.2 °F 38.2 °F 36.3 °F 83% 30.20 in 10.0 mi ENE 4.6 mph - N/A   Clear
7:35 AM 43.5 °F 41.9 °F 38.5 °F 82% 30.20 in 10.0 mi NE 3.5 mph - N/A   Clear
7:55 AM 45.9 °F 44.6 °F 41.4 °F 84% 30.21 in 10.0 mi ENE 3.5 mph - N/A   Clear
8:15 AM 47.7 °F - 42.8 °F 83% 30.21 in 10.0 mi ENE 5.8 mph - N/A   Clear
8:35 AM 49.8 °F - 45.3 °F 84% 30.21 in 10.0 mi East 4.6 mph - N/A   Clear
8:55 AM 52.9 °F - 48.4 °F 85% 30.21 in 10.0 mi East 3.5 mph - N/A   Clear
9:15 AM 55.9 °F - 51.1 °F 84% 30.21 in 10.0 mi East 3.5 mph - N/A   Clear
9:35 AM 59.0 °F - 54.1 °F 84% 30.21 in 10.0 mi East 4.6 mph - N/A   Clear
9:55 AM 61.0 °F - 54.9 °F 80% 30.21 in 10.0 mi Calm Calm - N/A   Clear
10:15 AM 62.8 °F - 55.0 °F 76% 30.21 in 10.0 mi SE 3.5 mph - N/A   Clear
10:35 AM 64.6 °F - 56.8 °F 76% 30.20 in 10.0 mi ESE 4.6 mph - N/A   Clear
10:55 AM 66.6 °F - 55.8 °F 68% 30.20 in 10.0 mi East 4.6 mph - N/A   Clear
11:15 AM 68.9 °F - 54.5 °F 60% 30.20 in 7.0 mi NE 4.6 mph - N/A   Clear
11:35 AM 69.8 °F - 52.3 °F 54% 30.20 in 10.0 mi NE 5.8 mph - N/A   Clear
11:55 AM 70.0 °F - 46.0 °F 42% 30.19 in 10.0 mi SE 4.6 mph - N/A   Clear
12:15 PM 70.7 °F - 45.5 °F 40% 30.19 in 7.0 mi ENE 6.9 mph - N/A   Clear
12:35 PM 71.8 °F - 46.2 °F 40% 30.18 in 7.0 mi East 8.1 mph - N/A   Clear
12:55 PM 72.5 °F - 45.9 °F 39% 30.17 in 7.0 mi East 8.1 mph - N/A   Clear
1:15 PM 72.9 °F - 45.1 °F 37% 30.16 in 7.0 mi East 4.6 mph - N/A   Clear
1:35 PM 73.9 °F - 45.5 °F 36% 30.15 in 7.0 mi East 8.1 mph - N/A   Clear
1:55 PM 74.7 °F - 44.8 °F 34% 30.15 in 7.0 mi East 5.8 mph - N/A   Clear
2:15 PM 74.5 °F - 43.5 °F 33% 30.14 in 10.0 mi East 6.9 mph - N/A   Clear
2:35 PM 75.2 °F - 43.7 °F 32% 30.14 in 10.0 mi SE 5.8 mph - N/A   Clear
2:55 PM 75.2 °F - 43.9 °F 33% 30.13 in 10.0 mi ESE 3.5 mph - N/A   Clear
3:15 PM 75.4 °F - 44.1 °F 33% 30.13 in 10.0 mi East 5.8 mph - N/A   Clear
3:55 PM 75.4 °F - 44.4 °F 33% 30.12 in 10.0 mi East 4.6 mph - N/A   Clear
4:15 PM 75.4 °F - 43.5 °F 32% 30.12 in 7.0 mi SSE 5.8 mph - N/A   Clear
4:35 PM 75.2 °F - 44.2 °F 33% 30.12 in 7.0 mi SE 5.8 mph - N/A   Clear
4:55 PM 75.2 °F - 43.7 °F 32% 30.12 in 7.0 mi ESE 3.5 mph - N/A   Clear
5:15 PM 73.8 °F - 42.8 °F 33% 30.12 in 10.0 mi SE 4.6 mph - N/A   Clear
5:35 PM 72.5 °F - 42.3 °F 34% 30.12 in 7.0 mi SE 4.6 mph - N/A   Clear
5:55 PM 70.9 °F - 41.9 °F 35% 30.12 in 7.0 mi SE 3.5 mph - N/A   Clear
6:15 PM 67.6 °F - 39.7 °F 36% 30.12 in 7.0 mi SSE 3.5 mph - N/A   Clear
6:55 PM 59.0 °F - 38.8 °F 47% 30.12 in 10.0 mi Calm Calm - N/A   Clear
7:15 PM 57.2 °F - 35.4 °F 44% 30.12 in 10.0 mi Calm Calm - N/A   Clear
7:35 PM 54.5 °F - 33.3 °F 45% 30.13 in 10.0 mi Calm Calm - N/A   Clear
7:55 PM 54.0 °F - 30.2 °F 40% 30.13 in 10.0 mi Calm Calm - N/A   Clear
8:15 PM 53.1 °F - 35.8 °F 52% 30.13 in 10.0 mi Calm Calm - N/A   Clear
8:35 PM 52.2 °F - 30.0 °F 43% 30.13 in 10.0 mi ESE 4.6 mph - N/A   Clear
8:55 PM 51.1 °F - 25.7 °F 37% 30.13 in 10.0 mi ESE 4.6 mph - N/A   Clear
9:15 PM 49.5 °F - 32.5 °F 52% 30.13 in 7.0 mi Calm Calm - N/A   Clear
9:35 PM 51.1 °F - 39.9 °F 66% 30.13 in 7.0 mi Calm Calm - N/A   Clear
9:55 PM 51.3 °F - 38.7 °F 62% 30.13 in 10.0 mi Calm Calm - N/A   Clear
10:15 PM 49.6 °F - 34.0 °F 55% 30.14 in 10.0 mi Calm Calm - N/A   Clear
10:35 PM 48.6 °F - 37.6 °F 66% 30.13 in 10.0 mi Calm Calm - N/A   Clear
10:55 PM 48.9 °F - 41.0 °F 74% 30.13 in 10.0 mi Calm Calm - N/A   Clear
11:15 PM 47.3 °F - 39.2 °F 73% 30.13 in 10.0 mi Calm Calm - N/A   Clear
11:55 PM 46.4 °F - 34.2 °F 62% 30.13 in 10.0 mi Calm Calm - N/A   Clear